sensor_id;sensor_type;location;lat;lon;timestamp;P1;durP1;ratioP1;P2;durP2;ratioP2
79759;SDS011;70512;42.122;24.732;2024-02-21T00:00:38;69.32;;;37.73;;
79759;SDS011;70512;42.122;24.732;2024-02-21T00:03:07;69.55;;;37.85;;
79759;SDS011;70512;42.122;24.732;2024-02-21T00:05:34;69.77;;;39.63;;
79759;SDS011;70512;42.122;24.732;2024-02-21T00:08:02;70.60;;;40.28;;
79759;SDS011;70512;42.122;24.732;2024-02-21T00:10:30;72.35;;;39.38;;
79759;SDS011;70512;42.122;24.732;2024-02-21T00:12:58;71.65;;;38.48;;
79759;SDS011;70512;42.122;24.732;2024-02-21T00:15:26;80.95;;;40.55;;
79759;SDS011;70512;42.122;24.732;2024-02-21T00:17:54;64.85;;;37.98;;
79759;SDS011;70512;42.122;24.732;2024-02-21T00:20:21;70.52;;;42.23;;
79759;SDS011;70512;42.122;24.732;2024-02-21T00:22:51;68.28;;;40.65;;
79759;SDS011;70512;42.122;24.732;2024-02-21T00:25:19;63.78;;;38.65;;
79759;SDS011;70512;42.122;24.732;2024-02-21T00:27:47;68.47;;;37.10;;
79759;SDS011;70512;42.122;24.732;2024-02-21T00:30:14;68.65;;;37.83;;
79759;SDS011;70512;42.122;24.732;2024-02-21T00:32:42;67.22;;;39.78;;
79759;SDS011;70512;42.122;24.732;2024-02-21T00:35:10;70.22;;;39.38;;
79759;SDS011;70512;42.122;24.732;2024-02-21T00:37:38;78.40;;;41.63;;
79759;SDS011;70512;42.122;24.732;2024-02-21T00:40:06;76.37;;;41.08;;
79759;SDS011;70512;42.122;24.732;2024-02-21T00:42:34;69.80;;;39.53;;
79759;SDS011;70512;42.122;24.732;2024-02-21T00:45:01;77.30;;;40.80;;
79759;SDS011;70512;42.122;24.732;2024-02-21T00:47:29;72.22;;;41.35;;
79759;SDS011;70512;42.122;24.732;2024-02-21T00:49:57;75.65;;;41.40;;
79759;SDS011;70512;42.122;24.732;2024-02-21T00:52:25;74.30;;;41.48;;
79759;SDS011;70512;42.122;24.732;2024-02-21T00:54:52;81.05;;;43.60;;
79759;SDS011;70512;42.122;24.732;2024-02-21T00:57:20;77.08;;;42.75;;
79759;SDS011;70512;42.122;24.732;2024-02-21T00:59:48;80.03;;;43.78;;
79759;SDS011;70512;42.122;24.732;2024-02-21T01:02:15;72.30;;;42.03;;
79759;SDS011;70512;42.122;24.732;2024-02-21T01:04:43;82.10;;;42.95;;
79759;SDS011;70512;42.122;24.732;2024-02-21T01:07:11;82.97;;;46.30;;
79759;SDS011;70512;42.122;24.732;2024-02-21T01:09:39;77.40;;;42.78;;
79759;SDS011;70512;42.122;24.732;2024-02-21T01:12:06;87.82;;;48.25;;
79759;SDS011;70512;42.122;24.732;2024-02-21T01:14:34;81.12;;;45.67;;
79759;SDS011;70512;42.122;24.732;2024-02-21T01:17:02;82.50;;;47.60;;
79759;SDS011;70512;42.122;24.732;2024-02-21T01:19:31;86.95;;;46.08;;
79759;SDS011;70512;42.122;24.732;2024-02-21T01:21:59;80.05;;;45.90;;
79759;SDS011;70512;42.122;24.732;2024-02-21T01:24:26;84.32;;;45.65;;
79759;SDS011;70512;42.122;24.732;2024-02-21T01:26:54;76.87;;;42.95;;
79759;SDS011;70512;42.122;24.732;2024-02-21T01:29:22;78.62;;;43.55;;
79759;SDS011;70512;42.122;24.732;2024-02-21T01:31:49;73.90;;;42.08;;
79759;SDS011;70512;42.122;24.732;2024-02-21T01:34:17;74.55;;;41.68;;
79759;SDS011;70512;42.122;24.732;2024-02-21T01:36:45;72.80;;;39.27;;
79759;SDS011;70512;42.122;24.732;2024-02-21T01:39:12;65.85;;;37.08;;
79759;SDS011;70512;42.122;24.732;2024-02-21T01:41:40;72.58;;;39.03;;
79759;SDS011;70512;42.122;24.732;2024-02-21T01:44:08;63.20;;;37.33;;
79759;SDS011;70512;42.122;24.732;2024-02-21T01:46:35;59.38;;;35.58;;
79759;SDS011;70512;42.122;24.732;2024-02-21T01:49:04;59.00;;;35.05;;
79759;SDS011;70512;42.122;24.732;2024-02-21T01:51:31;63.17;;;34.78;;
79759;SDS011;70512;42.122;24.732;2024-02-21T01:54:00;54.73;;;33.42;;
79759;SDS011;70512;42.122;24.732;2024-02-21T01:56:28;56.45;;;33.28;;
79759;SDS011;70512;42.122;24.732;2024-02-21T01:58:56;67.35;;;34.48;;
79759;SDS011;70512;42.122;24.732;2024-02-21T02:01:24;58.52;;;33.13;;
79759;SDS011;70512;42.122;24.732;2024-02-21T02:03:52;59.35;;;34.40;;
79759;SDS011;70512;42.122;24.732;2024-02-21T02:06:20;52.25;;;31.85;;
79759;SDS011;70512;42.122;24.732;2024-02-21T02:08:48;56.15;;;32.93;;
79759;SDS011;70512;42.122;24.732;2024-02-21T02:11:16;54.93;;;32.50;;
79759;SDS011;70512;42.122;24.732;2024-02-21T02:13:44;56.35;;;35.48;;
79759;SDS011;70512;42.122;24.732;2024-02-21T02:16:11;58.15;;;34.90;;
79759;SDS011;70512;42.122;24.732;2024-02-21T02:18:39;60.05;;;35.68;;
79759;SDS011;70512;42.122;24.732;2024-02-21T02:21:09;59.93;;;36.55;;
79759;SDS011;70512;42.122;24.732;2024-02-21T02:23:37;64.37;;;36.65;;
79759;SDS011;70512;42.122;24.732;2024-02-21T02:26:05;64.20;;;37.08;;
79759;SDS011;70512;42.122;24.732;2024-02-21T02:28:33;66.00;;;39.10;;
79759;SDS011;70512;42.122;24.732;2024-02-21T02:31:02;70.22;;;38.83;;
79759;SDS011;70512;42.122;24.732;2024-02-21T02:33:30;72.70;;;39.00;;
79759;SDS011;70512;42.122;24.732;2024-02-21T02:35:57;75.40;;;41.88;;
79759;SDS011;70512;42.122;24.732;2024-02-21T02:38:25;68.90;;;39.53;;
79759;SDS011;70512;42.122;24.732;2024-02-21T02:40:53;70.50;;;40.08;;
79759;SDS011;70512;42.122;24.732;2024-02-21T02:43:20;72.03;;;40.38;;
79759;SDS011;70512;42.122;24.732;2024-02-21T02:45:48;77.90;;;43.58;;
79759;SDS011;70512;42.122;24.732;2024-02-21T02:48:16;79.20;;;43.45;;
79759;SDS011;70512;42.122;24.732;2024-02-21T02:50:45;80.65;;;44.48;;
79759;SDS011;70512;42.122;24.732;2024-02-21T02:53:13;73.80;;;43.28;;
79759;SDS011;70512;42.122;24.732;2024-02-21T02:55:40;85.20;;;43.98;;
79759;SDS011;70512;42.122;24.732;2024-02-21T02:58:08;81.63;;;45.25;;
79759;SDS011;70512;42.122;24.732;2024-02-21T03:00:36;81.50;;;43.28;;
79759;SDS011;70512;42.122;24.732;2024-02-21T03:03:05;73.67;;;44.65;;
79759;SDS011;70512;42.122;24.732;2024-02-21T03:05:34;68.70;;;40.75;;
79759;SDS011;70512;42.122;24.732;2024-02-21T03:08:02;78.97;;;42.53;;
79759;SDS011;70512;42.122;24.732;2024-02-21T03:10:31;77.08;;;44.73;;
79759;SDS011;70512;42.122;24.732;2024-02-21T03:12:59;75.08;;;42.67;;
79759;SDS011;70512;42.122;24.732;2024-02-21T03:15:27;72.42;;;43.00;;
79759;SDS011;70512;42.122;24.732;2024-02-21T03:17:55;74.45;;;43.80;;
79759;SDS011;70512;42.122;24.732;2024-02-21T03:20:22;73.78;;;43.35;;
79759;SDS011;70512;42.122;24.732;2024-02-21T03:22:50;77.15;;;43.90;;
79759;SDS011;70512;42.122;24.732;2024-02-21T03:25:18;73.97;;;43.20;;
79759;SDS011;70512;42.122;24.732;2024-02-21T03:27:45;76.62;;;41.37;;
79759;SDS011;70512;42.122;24.732;2024-02-21T03:30:13;68.22;;;39.90;;
79759;SDS011;70512;42.122;24.732;2024-02-21T03:32:41;70.50;;;41.30;;
79759;SDS011;70512;42.122;24.732;2024-02-21T03:35:09;73.47;;;42.80;;
79759;SDS011;70512;42.122;24.732;2024-02-21T03:37:36;81.97;;;42.17;;
79759;SDS011;70512;42.122;24.732;2024-02-21T03:40:09;68.87;;;40.55;;
79759;SDS011;70512;42.122;24.732;2024-02-21T03:42:34;64.87;;;40.23;;
79759;SDS011;70512;42.122;24.732;2024-02-21T03:45:02;65.12;;;37.48;;
79759;SDS011;70512;42.122;24.732;2024-02-21T03:47:29;61.20;;;37.40;;
79759;SDS011;70512;42.122;24.732;2024-02-21T03:49:57;60.43;;;35.17;;
79759;SDS011;70512;42.122;24.732;2024-02-21T03:52:25;66.37;;;37.13;;
79759;SDS011;70512;42.122;24.732;2024-02-21T03:54:53;61.45;;;37.48;;
79759;SDS011;70512;42.122;24.732;2024-02-21T03:57:20;54.93;;;33.35;;
79759;SDS011;70512;42.122;24.732;2024-02-21T03:59:51;56.28;;;34.73;;
79759;SDS011;70512;42.122;24.732;2024-02-21T04:02:19;55.70;;;35.03;;
79759;SDS011;70512;42.122;24.732;2024-02-21T04:04:46;50.60;;;31.40;;
79759;SDS011;70512;42.122;24.732;2024-02-21T04:07:14;49.75;;;32.50;;
79759;SDS011;70512;42.122;24.732;2024-02-21T04:09:42;52.20;;;33.23;;
79759;SDS011;70512;42.122;24.732;2024-02-21T04:12:10;49.27;;;31.50;;
79759;SDS011;70512;42.122;24.732;2024-02-21T04:14:37;49.05;;;31.50;;
79759;SDS011;70512;42.122;24.732;2024-02-21T04:17:05;43.55;;;26.52;;
79759;SDS011;70512;42.122;24.732;2024-02-21T04:19:33;42.00;;;27.13;;
79759;SDS011;70512;42.122;24.732;2024-02-21T04:22:01;41.08;;;26.93;;
79759;SDS011;70512;42.122;24.732;2024-02-21T04:24:28;43.15;;;26.52;;
79759;SDS011;70512;42.122;24.732;2024-02-21T04:26:56;45.33;;;29.27;;
79759;SDS011;70512;42.122;24.732;2024-02-21T04:29:24;39.42;;;26.77;;
79759;SDS011;70512;42.122;24.732;2024-02-21T04:31:53;49.35;;;30.27;;
79759;SDS011;70512;42.122;24.732;2024-02-21T04:34:21;49.13;;;30.02;;
79759;SDS011;70512;42.122;24.732;2024-02-21T04:36:49;48.23;;;31.05;;
79759;SDS011;70512;42.122;24.732;2024-02-21T04:39:17;71.35;;;41.40;;
79759;SDS011;70512;42.122;24.732;2024-02-21T04:41:44;79.87;;;45.00;;
79759;SDS011;70512;42.122;24.732;2024-02-21T04:44:12;81.17;;;43.28;;
79759;SDS011;70512;42.122;24.732;2024-02-21T04:46:42;77.60;;;45.25;;
79759;SDS011;70512;42.122;24.732;2024-02-21T04:49:09;81.53;;;47.67;;
79759;SDS011;70512;42.122;24.732;2024-02-21T04:51:37;83.67;;;48.68;;
79759;SDS011;70512;42.122;24.732;2024-02-21T04:54:06;81.65;;;46.53;;
79759;SDS011;70512;42.122;24.732;2024-02-21T04:56:34;77.27;;;45.23;;
79759;SDS011;70512;42.122;24.732;2024-02-21T04:59:02;77.00;;;43.15;;
79759;SDS011;70512;42.122;24.732;2024-02-21T05:01:30;79.82;;;44.23;;
79759;SDS011;70512;42.122;24.732;2024-02-21T05:03:58;83.45;;;46.50;;
79759;SDS011;70512;42.122;24.732;2024-02-21T05:06:25;83.15;;;49.60;;
79759;SDS011;70512;42.122;24.732;2024-02-21T05:08:53;87.37;;;50.43;;
79759;SDS011;70512;42.122;24.732;2024-02-21T05:11:21;79.15;;;46.65;;
79759;SDS011;70512;42.122;24.732;2024-02-21T05:13:49;86.78;;;46.35;;
79759;SDS011;70512;42.122;24.732;2024-02-21T05:16:17;79.67;;;44.77;;
79759;SDS011;70512;42.122;24.732;2024-02-21T05:18:45;82.08;;;47.80;;
79759;SDS011;70512;42.122;24.732;2024-02-21T05:21:13;82.92;;;46.73;;
79759;SDS011;70512;42.122;24.732;2024-02-21T05:23:40;85.17;;;49.58;;
79759;SDS011;70512;42.122;24.732;2024-02-21T05:26:08;86.47;;;49.08;;
79759;SDS011;70512;42.122;24.732;2024-02-21T05:28:36;88.85;;;48.38;;
79759;SDS011;70512;42.122;24.732;2024-02-21T05:31:04;82.95;;;49.63;;
79759;SDS011;70512;42.122;24.732;2024-02-21T05:33:31;89.07;;;52.03;;
79759;SDS011;70512;42.122;24.732;2024-02-21T05:35:59;87.72;;;47.35;;
79759;SDS011;70512;42.122;24.732;2024-02-21T05:38:27;88.47;;;48.83;;
79759;SDS011;70512;42.122;24.732;2024-02-21T05:40:54;84.05;;;47.08;;
79759;SDS011;70512;42.122;24.732;2024-02-21T05:43:23;81.37;;;48.17;;
79759;SDS011;70512;42.122;24.732;2024-02-21T05:45:50;81.15;;;47.38;;
79759;SDS011;70512;42.122;24.732;2024-02-21T05:48:18;84.17;;;47.62;;
79759;SDS011;70512;42.122;24.732;2024-02-21T05:50:46;83.67;;;47.65;;
79759;SDS011;70512;42.122;24.732;2024-02-21T05:53:14;85.75;;;48.15;;
79759;SDS011;70512;42.122;24.732;2024-02-21T05:55:41;77.27;;;43.63;;
79759;SDS011;70512;42.122;24.732;2024-02-21T05:58:10;86.00;;;50.25;;
79759;SDS011;70512;42.122;24.732;2024-02-21T06:00:39;83.12;;;46.58;;
79759;SDS011;70512;42.122;24.732;2024-02-21T06:03:07;78.50;;;44.58;;
79759;SDS011;70512;42.122;24.732;2024-02-21T06:05:37;79.15;;;45.90;;
79759;SDS011;70512;42.122;24.732;2024-02-21T06:08:05;81.57;;;47.25;;
79759;SDS011;70512;42.122;24.732;2024-02-21T06:10:33;80.50;;;45.58;;
79759;SDS011;70512;42.122;24.732;2024-02-21T06:13:01;76.47;;;43.78;;
79759;SDS011;70512;42.122;24.732;2024-02-21T06:15:29;94.50;;;49.80;;
79759;SDS011;70512;42.122;24.732;2024-02-21T06:17:56;119.05;;;74.42;;
79759;SDS011;70512;42.122;24.732;2024-02-21T06:20:24;71.55;;;44.23;;
79759;SDS011;70512;42.122;24.732;2024-02-21T06:22:52;80.40;;;45.00;;
79759;SDS011;70512;42.122;24.732;2024-02-21T06:25:20;80.05;;;47.35;;
79759;SDS011;70512;42.122;24.732;2024-02-21T06:27:48;78.20;;;45.38;;
79759;SDS011;70512;42.122;24.732;2024-02-21T06:30:16;73.20;;;42.80;;
79759;SDS011;70512;42.122;24.732;2024-02-21T06:32:43;65.35;;;41.10;;
79759;SDS011;70512;42.122;24.732;2024-02-21T06:35:12;70.15;;;42.80;;
79759;SDS011;70512;42.122;24.732;2024-02-21T06:37:40;72.55;;;43.00;;
79759;SDS011;70512;42.122;24.732;2024-02-21T06:40:07;69.35;;;41.55;;
79759;SDS011;70512;42.122;24.732;2024-02-21T06:42:35;74.42;;;40.90;;
79759;SDS011;70512;42.122;24.732;2024-02-21T06:45:03;80.30;;;49.60;;
79759;SDS011;70512;42.122;24.732;2024-02-21T06:47:31;70.62;;;43.83;;
79759;SDS011;70512;42.122;24.732;2024-02-21T06:49:58;92.05;;;50.38;;
79759;SDS011;70512;42.122;24.732;2024-02-21T06:52:26;71.17;;;44.55;;
79759;SDS011;70512;42.122;24.732;2024-02-21T06:54:54;66.22;;;39.23;;
79759;SDS011;70512;42.122;24.732;2024-02-21T06:57:21;59.58;;;37.35;;
79759;SDS011;70512;42.122;24.732;2024-02-21T06:59:49;58.15;;;34.75;;
79759;SDS011;70512;42.122;24.732;2024-02-21T07:02:17;57.50;;;35.13;;
79759;SDS011;70512;42.122;24.732;2024-02-21T07:04:45;50.55;;;32.25;;
79759;SDS011;70512;42.122;24.732;2024-02-21T07:07:12;44.58;;;28.65;;
79759;SDS011;70512;42.122;24.732;2024-02-21T07:09:40;44.23;;;27.75;;
79759;SDS011;70512;42.122;24.732;2024-02-21T07:12:08;42.93;;;25.92;;
79759;SDS011;70512;42.122;24.732;2024-02-21T07:14:35;40.48;;;25.20;;
79759;SDS011;70512;42.122;24.732;2024-02-21T07:22:53;35.08;;;21.05;;
79759;SDS011;70512;42.122;24.732;2024-02-21T07:25:20;34.88;;;21.37;;
79759;SDS011;70512;42.122;24.732;2024-02-21T07:27:48;30.90;;;21.05;;
79759;SDS011;70512;42.122;24.732;2024-02-21T07:30:15;31.75;;;22.30;;
79759;SDS011;70512;42.122;24.732;2024-02-21T07:32:43;33.48;;;21.23;;
79759;SDS011;70512;42.122;24.732;2024-02-21T09:04:06;17.10;;;12.82;;
79759;SDS011;70512;42.122;24.732;2024-02-21T09:06:34;24.72;;;15.18;;
79759;SDS011;70512;42.122;24.732;2024-02-21T09:09:03;18.73;;;14.58;;
79759;SDS011;70512;42.122;24.732;2024-02-21T09:11:31;19.77;;;14.05;;
79759;SDS011;70512;42.122;24.732;2024-02-21T09:13:58;18.12;;;13.53;;
79759;SDS011;70512;42.122;24.732;2024-02-21T09:16:26;26.25;;;16.50;;
79759;SDS011;70512;42.122;24.732;2024-02-21T09:18:54;16.90;;;13.13;;
79759;SDS011;70512;42.122;24.732;2024-02-21T09:21:23;17.95;;;13.18;;
79759;SDS011;70512;42.122;24.732;2024-02-21T09:23:51;19.67;;;14.10;;
79759;SDS011;70512;42.122;24.732;2024-02-21T09:26:18;49.33;;;26.80;;
79759;SDS011;70512;42.122;24.732;2024-02-21T09:28:46;41.40;;;23.90;;
79759;SDS011;70512;42.122;24.732;2024-02-21T09:31:14;21.10;;;15.03;;
79759;SDS011;70512;42.122;24.732;2024-02-21T09:33:41;18.77;;;13.18;;
79759;SDS011;70512;42.122;24.732;2024-02-21T09:36:09;18.52;;;14.00;;
79759;SDS011;70512;42.122;24.732;2024-02-21T09:38:39;12.55;;;11.25;;
79759;SDS011;70512;42.122;24.732;2024-02-21T09:43:38;11.70;;;10.50;;
79759;SDS011;70512;42.122;24.732;2024-02-21T09:46:08;13.23;;;9.87;;
79759;SDS011;70512;42.122;24.732;2024-02-21T09:48:42;11.30;;;10.08;;
79759;SDS011;70512;42.122;24.732;2024-02-21T09:51:18;10.23;;;8.83;;
79759;SDS011;70512;42.122;24.732;2024-02-21T09:53:47;13.95;;;9.53;;
79759;SDS011;70512;42.122;24.732;2024-02-21T09:56:15;12.18;;;10.15;;
79759;SDS011;70512;42.122;24.732;2024-02-21T09:58:43;10.43;;;8.78;;
79759;SDS011;70512;42.122;24.732;2024-02-21T10:01:11;12.47;;;9.95;;
79759;SDS011;70512;42.122;24.732;2024-02-21T10:03:38;13.68;;;10.18;;
79759;SDS011;70512;42.122;24.732;2024-02-21T10:06:06;15.78;;;9.40;;
79759;SDS011;70512;42.122;24.732;2024-02-21T10:08:34;13.08;;;9.88;;
79759;SDS011;70512;42.122;24.732;2024-02-21T10:11:02;9.65;;;8.75;;
79759;SDS011;70512;42.122;24.732;2024-02-21T10:13:29;10.38;;;9.03;;
79759;SDS011;70512;42.122;24.732;2024-02-21T10:16:07;17.05;;;11.33;;
79759;SDS011;70512;42.122;24.732;2024-02-21T10:18:35;9.58;;;8.20;;
79759;SDS011;70512;42.122;24.732;2024-02-21T10:21:04;8.83;;;7.92;;
79759;SDS011;70512;42.122;24.732;2024-02-21T10:23:43;11.43;;;9.33;;
79759;SDS011;70512;42.122;24.732;2024-02-21T10:26:12;11.28;;;9.53;;
79759;SDS011;70512;42.122;24.732;2024-02-21T10:28:42;13.45;;;9.05;;
79759;SDS011;70512;42.122;24.732;2024-02-21T10:31:11;9.53;;;8.53;;
79759;SDS011;70512;42.122;24.732;2024-02-21T10:33:54;8.28;;;7.50;;
79759;SDS011;70512;42.122;24.732;2024-02-21T10:36:23;17.65;;;10.72;;
79759;SDS011;70512;42.122;24.732;2024-02-21T10:38:51;10.90;;;8.18;;
79759;SDS011;70512;42.122;24.732;2024-02-21T10:41:21;15.70;;;9.88;;
79759;SDS011;70512;42.122;24.732;2024-02-21T10:43:50;12.95;;;8.95;;
79759;SDS011;70512;42.122;24.732;2024-02-21T10:46:21;15.32;;;10.43;;
79759;SDS011;70512;42.122;24.732;2024-02-21T10:51:56;11.63;;;9.98;;
79759;SDS011;70512;42.122;24.732;2024-02-21T10:54:39;9.30;;;8.40;;
79759;SDS011;70512;42.122;24.732;2024-02-21T10:57:07;8.95;;;8.05;;
79759;SDS011;70512;42.122;24.732;2024-02-21T10:59:37;12.07;;;9.50;;
79759;SDS011;70512;42.122;24.732;2024-02-21T11:02:05;7.80;;;7.00;;
79759;SDS011;70512;42.122;24.732;2024-02-21T11:04:33;9.18;;;7.85;;
79759;SDS011;70512;42.122;24.732;2024-02-21T11:07:08;8.25;;;7.08;;
79759;SDS011;70512;42.122;24.732;2024-02-21T11:09:32;12.65;;;9.35;;
79759;SDS011;70512;42.122;24.732;2024-02-21T11:12:03;12.58;;;9.05;;
79759;SDS011;70512;42.122;24.732;2024-02-21T11:14:32;7.97;;;7.20;;
79759;SDS011;70512;42.122;24.732;2024-02-21T11:17:02;10.40;;;8.23;;
79759;SDS011;70512;42.122;24.732;2024-02-21T11:19:30;8.73;;;7.60;;
79759;SDS011;70512;42.122;24.732;2024-02-21T11:21:57;13.68;;;8.30;;
79759;SDS011;70512;42.122;24.732;2024-02-21T11:24:30;12.82;;;7.72;;
79759;SDS011;70512;42.122;24.732;2024-02-21T11:29:46;9.65;;;8.08;;
79759;SDS011;70512;42.122;24.732;2024-02-21T11:32:17;9.10;;;8.25;;
79759;SDS011;70512;42.122;24.732;2024-02-21T11:34:55;8.38;;;7.58;;
79759;SDS011;70512;42.122;24.732;2024-02-21T11:37:33;10.65;;;8.23;;
79759;SDS011;70512;42.122;24.732;2024-02-21T11:40:05;7.97;;;7.15;;
79759;SDS011;70512;42.122;24.732;2024-02-21T11:42:35;8.55;;;7.22;;
79759;SDS011;70512;42.122;24.732;2024-02-21T11:45:03;9.20;;;7.00;;
79759;SDS011;70512;42.122;24.732;2024-02-21T11:47:31;10.95;;;7.37;;
79759;SDS011;70512;42.122;24.732;2024-02-21T11:49:59;9.20;;;7.03;;
79759;SDS011;70512;42.122;24.732;2024-02-21T11:52:26;7.15;;;6.45;;
79759;SDS011;70512;42.122;24.732;2024-02-21T11:54:54;8.55;;;7.33;;
79759;SDS011;70512;42.122;24.732;2024-02-21T11:57:24;11.40;;;8.18;;
79759;SDS011;70512;42.122;24.732;2024-02-21T11:59:51;9.23;;;8.33;;
79759;SDS011;70512;42.122;24.732;2024-02-21T12:02:20;9.75;;;6.78;;
79759;SDS011;70512;42.122;24.732;2024-02-21T12:04:48;8.65;;;7.15;;
79759;SDS011;70512;42.122;24.732;2024-02-21T12:07:17;9.53;;;7.75;;
79759;SDS011;70512;42.122;24.732;2024-02-21T12:09:45;6.62;;;5.95;;
79759;SDS011;70512;42.122;24.732;2024-02-21T12:12:13;10.00;;;6.85;;
79759;SDS011;70512;42.122;24.732;2024-02-21T12:14:42;8.20;;;6.87;;
79759;SDS011;70512;42.122;24.732;2024-02-21T12:17:10;19.00;;;12.68;;
79759;SDS011;70512;42.122;24.732;2024-02-21T12:19:37;7.00;;;6.30;;
79759;SDS011;70512;42.122;24.732;2024-02-21T12:22:05;11.18;;;7.70;;
79759;SDS011;70512;42.122;24.732;2024-02-21T12:24:34;8.53;;;6.15;;
79759;SDS011;70512;42.122;24.732;2024-02-21T12:27:03;7.20;;;5.40;;
79759;SDS011;70512;42.122;24.732;2024-02-21T12:29:31;7.50;;;6.03;;
79759;SDS011;70512;42.122;24.732;2024-02-21T12:31:59;6.22;;;5.62;;
79759;SDS011;70512;42.122;24.732;2024-02-21T12:34:27;7.97;;;5.22;;
79759;SDS011;70512;42.122;24.732;2024-02-21T12:36:58;8.98;;;5.83;;
79759;SDS011;70512;42.122;24.732;2024-02-21T12:39:25;6.08;;;5.47;;
79759;SDS011;70512;42.122;24.732;2024-02-21T12:41:57;8.15;;;6.10;;
79759;SDS011;70512;42.122;24.732;2024-02-21T12:44:25;8.23;;;6.30;;
79759;SDS011;70512;42.122;24.732;2024-02-21T12:46:53;9.85;;;6.78;;
79759;SDS011;70512;42.122;24.732;2024-02-21T12:49:21;8.78;;;6.80;;
79759;SDS011;70512;42.122;24.732;2024-02-21T12:51:50;8.68;;;6.17;;
79759;SDS011;70512;42.122;24.732;2024-02-21T12:54:17;7.17;;;5.78;;
79759;SDS011;70512;42.122;24.732;2024-02-21T12:56:45;5.33;;;4.70;;
79759;SDS011;70512;42.122;24.732;2024-02-21T12:59:13;4.53;;;4.12;;
79759;SDS011;70512;42.122;24.732;2024-02-21T13:01:40;5.35;;;4.85;;
79759;SDS011;70512;42.122;24.732;2024-02-21T13:04:08;6.25;;;5.62;;
79759;SDS011;70512;42.122;24.732;2024-02-21T13:06:37;7.92;;;5.22;;
79759;SDS011;70512;42.122;24.732;2024-02-21T13:09:05;5.35;;;4.83;;
79759;SDS011;70512;42.122;24.732;2024-02-21T13:11:37;5.28;;;3.92;;
79759;SDS011;70512;42.122;24.732;2024-02-21T13:14:06;5.42;;;4.65;;
79759;SDS011;70512;42.122;24.732;2024-02-21T13:16:34;7.45;;;4.45;;
79759;SDS011;70512;42.122;24.732;2024-02-21T13:19:03;4.40;;;4.00;;
79759;SDS011;70512;42.122;24.732;2024-02-21T13:21:31;4.50;;;4.10;;
79759;SDS011;70512;42.122;24.732;2024-02-21T13:23:59;8.80;;;5.12;;
79759;SDS011;70512;42.122;24.732;2024-02-21T13:26:27;12.43;;;6.75;;
79759;SDS011;70512;42.122;24.732;2024-02-21T13:28:55;5.58;;;4.90;;
79759;SDS011;70512;42.122;24.732;2024-02-21T13:31:22;6.60;;;5.25;;
79759;SDS011;70512;42.122;24.732;2024-02-21T13:33:51;9.68;;;6.08;;
79759;SDS011;70512;42.122;24.732;2024-02-21T13:36:18;8.00;;;6.53;;
79759;SDS011;70512;42.122;24.732;2024-02-21T13:38:46;5.55;;;4.90;;
79759;SDS011;70512;42.122;24.732;2024-02-21T13:41:14;6.58;;;4.53;;
79759;SDS011;70512;42.122;24.732;2024-02-21T13:43:42;14.50;;;7.95;;
79759;SDS011;70512;42.122;24.732;2024-02-21T13:46:09;9.58;;;5.12;;
79759;SDS011;70512;42.122;24.732;2024-02-21T13:48:37;5.87;;;4.40;;
79759;SDS011;70512;42.122;24.732;2024-02-21T13:51:05;4.75;;;3.83;;
79759;SDS011;70512;42.122;24.732;2024-02-21T13:53:33;6.28;;;4.72;;
79759;SDS011;70512;42.122;24.732;2024-02-21T13:56:00;6.42;;;5.35;;
79759;SDS011;70512;42.122;24.732;2024-02-21T13:58:28;9.18;;;5.08;;
79759;SDS011;70512;42.122;24.732;2024-02-21T14:00:56;7.50;;;4.78;;
79759;SDS011;70512;42.122;24.732;2024-02-21T14:03:24;4.40;;;3.77;;
79759;SDS011;70512;42.122;24.732;2024-02-21T14:05:51;6.25;;;3.45;;
79759;SDS011;70512;42.122;24.732;2024-02-21T14:08:19;5.95;;;4.55;;
79759;SDS011;70512;42.122;24.732;2024-02-21T14:10:48;9.83;;;4.62;;
79759;SDS011;70512;42.122;24.732;2024-02-21T14:13:15;10.95;;;5.53;;
79759;SDS011;70512;42.122;24.732;2024-02-21T14:15:43;6.67;;;4.50;;
79759;SDS011;70512;42.122;24.732;2024-02-21T14:18:15;7.03;;;4.30;;
79759;SDS011;70512;42.122;24.732;2024-02-21T14:20:43;13.32;;;8.15;;
79759;SDS011;70512;42.122;24.732;2024-02-21T14:23:12;23.35;;;8.00;;
79759;SDS011;70512;42.122;24.732;2024-02-21T14:25:40;14.18;;;8.53;;
79759;SDS011;70512;42.122;24.732;2024-02-21T14:28:08;12.50;;;7.85;;
79759;SDS011;70512;42.122;24.732;2024-02-21T14:30:35;11.73;;;7.42;;
79759;SDS011;70512;42.122;24.732;2024-02-21T14:33:03;13.53;;;8.03;;
79759;SDS011;70512;42.122;24.732;2024-02-21T14:35:31;17.52;;;8.55;;
79759;SDS011;70512;42.122;24.732;2024-02-21T14:38:00;18.00;;;9.35;;
79759;SDS011;70512;42.122;24.732;2024-02-21T14:40:27;13.10;;;8.93;;
79759;SDS011;70512;42.122;24.732;2024-02-21T14:42:56;13.50;;;7.25;;
79759;SDS011;70512;42.122;24.732;2024-02-21T14:45:23;11.38;;;8.18;;
79759;SDS011;70512;42.122;24.732;2024-02-21T14:47:51;12.13;;;7.47;;
79759;SDS011;70512;42.122;24.732;2024-02-21T14:50:19;13.75;;;7.25;;
79759;SDS011;70512;42.122;24.732;2024-02-21T14:52:46;21.02;;;10.40;;
79759;SDS011;70512;42.122;24.732;2024-02-21T14:55:14;11.20;;;8.08;;
79759;SDS011;70512;42.122;24.732;2024-02-21T14:57:42;13.80;;;6.85;;
79759;SDS011;70512;42.122;24.732;2024-02-21T15:00:10;18.90;;;8.28;;
79759;SDS011;70512;42.122;24.732;2024-02-21T15:02:38;20.20;;;9.65;;
79759;SDS011;70512;42.122;24.732;2024-02-21T15:05:06;19.37;;;9.35;;
79759;SDS011;70512;42.122;24.732;2024-02-21T15:07:34;20.72;;;13.28;;
79759;SDS011;70512;42.122;24.732;2024-02-21T15:10:02;18.77;;;10.05;;
79759;SDS011;70512;42.122;24.732;2024-02-21T15:12:29;20.15;;;9.85;;
79759;SDS011;70512;42.122;24.732;2024-02-21T15:14:57;12.07;;;8.03;;
79759;SDS011;70512;42.122;24.732;2024-02-21T15:17:25;19.32;;;8.85;;
79759;SDS011;70512;42.122;24.732;2024-02-21T15:19:52;14.55;;;8.40;;
79759;SDS011;70512;42.122;24.732;2024-02-21T15:22:21;12.03;;;7.45;;
79759;SDS011;70512;42.122;24.732;2024-02-21T15:24:48;17.48;;;7.53;;
79759;SDS011;70512;42.122;24.732;2024-02-21T15:27:17;21.10;;;8.73;;
79759;SDS011;70512;42.122;24.732;2024-02-21T15:29:45;17.75;;;10.43;;
79759;SDS011;70512;42.122;24.732;2024-02-21T15:32:12;18.42;;;10.60;;
79759;SDS011;70512;42.122;24.732;2024-02-21T15:34:40;22.70;;;10.53;;
79759;SDS011;70512;42.122;24.732;2024-02-21T15:37:08;30.02;;;12.47;;
79759;SDS011;70512;42.122;24.732;2024-02-21T15:39:37;26.93;;;12.05;;
79759;SDS011;70512;42.122;24.732;2024-02-21T15:42:05;26.82;;;15.30;;
79759;SDS011;70512;42.122;24.732;2024-02-21T15:44:32;19.65;;;10.25;;
79759;SDS011;70512;42.122;24.732;2024-02-21T15:47:00;22.48;;;10.75;;
79759;SDS011;70512;42.122;24.732;2024-02-21T15:49:28;23.47;;;10.53;;
79759;SDS011;70512;42.122;24.732;2024-02-21T15:51:56;19.87;;;11.20;;
79759;SDS011;70512;42.122;24.732;2024-02-21T15:54:24;14.00;;;9.20;;
79759;SDS011;70512;42.122;24.732;2024-02-21T15:56:53;18.48;;;10.82;;
79759;SDS011;70512;42.122;24.732;2024-02-21T15:59:22;24.45;;;12.18;;
79759;SDS011;70512;42.122;24.732;2024-02-21T16:01:49;21.02;;;11.95;;
79759;SDS011;70512;42.122;24.732;2024-02-21T16:04:17;20.55;;;12.23;;